Time;durP1;ratioP1;P1;durP2;ratioP2;P2;SDS_P1;SDS_P2;PMS_P1;PMS_P2;Temp;Humidity;BMP_temperature;BMP_pressure;BME280_temperature;BME280_humidity;BME280_pressure;Samples;Min_cycle;Max_cycle;Signal;HPM_P1;HPM_P2
2022/04/22 00:01:10;;;;;;;24.60;9.35;;;8.50;99.90;;;;;;5056794;28;20048;-82
2022/04/22 00:03:35;;;;;;;18.15;9.10;;;8.50;99.90;;;;;;5056887;28;20036;-82
2022/04/22 00:06:01;;;;;;;18.77;8.90;;;8.60;99.90;;;;;;5056984;28;20041;-81
2022/04/22 00:08:27;;;;;;;24.10;9.18;;;8.50;99.90;;;;;;5057111;28;20033;-82
2022/04/22 00:13:36;;;;;;;19.88;9.23;;;8.60;99.90;;;;;;5055856;28;20056;-81
2022/04/22 00:16:02;;;;;;;23.00;10.98;;;8.50;99.90;;;;;;5056567;28;20036;-81
2022/04/22 00:18:30;;;;;;;20.25;9.88;;;8.50;99.90;;;;;;5056732;28;20045;-81
2022/04/22 00:20:55;;;;;;;19.20;8.52;;;8.50;99.90;;;;;;5056766;28;20109;-82
2022/04/22 00:23:21;;;;;;;24.83;9.00;;;8.50;99.90;;;;;;5056725;28;20179;-81
2022/04/22 00:25:47;;;;;;;18.95;9.23;;;8.50;99.90;;;;;;5056133;28;20052;-82
2022/04/22 00:28:12;;;;;;;20.83;9.02;;;8.40;99.90;;;;;;5056458;28;20068;-81
2022/04/22 00:30:38;;;;;;;15.50;8.98;;;8.40;99.90;;;;;;5056657;28;20045;-81
2022/04/22 00:33:04;;;;;;;16.90;9.43;;;8.40;99.90;;;;;;5056282;28;20044;-82
2022/04/22 00:35:29;;;;;;;24.05;8.65;;;8.30;99.90;;;;;;5055389;28;20040;-81
2022/04/22 00:37:55;;;;;;;18.38;9.02;;;8.30;99.90;;;;;;5056425;28;20041;-81
2022/04/22 00:40:21;;;;;;;19.20;8.88;;;8.20;99.90;;;;;;5056507;28;20049;-81
2022/04/22 00:42:46;;;;;;;18.58;9.00;;;8.20;99.90;;;;;;5055348;28;20049;-81
2022/04/22 00:45:12;;;;;;;20.20;9.55;;;8.10;99.90;;;;;;5056428;28;20037;-81
2022/04/22 00:47:38;;;;;;;17.02;9.00;;;8.10;99.90;;;;;;5056284;28;20550;-81
2022/04/22 00:50:04;;;;;;;24.95;8.98;;;8.00;99.90;;;;;;5056398;28;20097;-81
2022/04/22 00:52:30;;;;;;;18.80;9.10;;;8.00;99.90;;;;;;5056028;28;20037;-81
2022/04/22 00:54:56;;;;;;;19.15;10.57;;;7.90;99.90;;;;;;5055026;28;20045;-81
2022/04/22 00:57:22;;;;;;;19.60;10.63;;;7.80;99.90;;;;;;5056541;28;20048;-81
2022/04/22 00:59:48;;;;;;;18.58;8.77;;;7.90;99.90;;;;;;5056747;28;20418;-81
2022/04/22 01:02:14;;;;;;;22.92;10.07;;;7.90;99.90;;;;;;5056699;28;20059;-81
2022/04/22 01:10:08;;;;;;;19.05;9.95;;;7.80;99.90;;;;;;5055611;28;20096;-81
2022/04/22 01:12:34;;;;;;;20.20;10.60;;;7.80;99.90;;;;;;5054275;28;20067;-82
2022/04/22 01:15:00;;;;;;;23.42;10.13;;;7.80;99.90;;;;;;5055807;28;20091;-82
2022/04/22 01:17:27;;;;;;;23.80;10.88;;;7.80;99.90;;;;;;5055879;28;20125;-81
2022/04/22 01:19:54;;;;;;;19.05;10.30;;;7.70;99.90;;;;;;5056332;28;20059;-81
2022/04/22 01:22:20;;;;;;;22.30;11.70;;;7.70;99.90;;;;;;5056287;28;20044;-81
2022/04/22 01:24:47;;;;;;;20.40;9.60;;;7.70;99.90;;;;;;5056495;28;20048;-81
2022/04/22 01:27:13;;;;;;;22.85;9.80;;;7.70;99.90;;;;;;5056093;28;20077;-81
2022/04/22 01:29:39;;;;;;;19.25;9.93;;;7.60;99.90;;;;;;5056361;28;20044;-82
2022/04/22 01:32:05;;;;;;;23.88;9.98;;;7.60;99.90;;;;;;5057631;28;20044;-81
2022/04/22 01:34:32;;;;;;;18.10;9.43;;;7.60;99.90;;;;;;5055343;28;20119;-81
2022/04/22 01:36:58;;;;;;;18.40;9.88;;;7.60;99.90;;;;;;5056848;28;20045;-81
2022/04/22 01:39:24;;;;;;;20.08;9.07;;;7.60;99.90;;;;;;5056577;28;20044;-81
2022/04/22 01:41:49;;;;;;;18.80;9.27;;;7.40;99.90;;;;;;5057577;28;20545;-81
2022/04/22 01:44:16;;;;;;;17.50;9.98;;;7.40;99.90;;;;;;5058520;28;20041;-81
2022/04/22 01:46:42;;;;;;;23.33;9.50;;;7.40;99.90;;;;;;5056377;28;20075;-81
2022/04/22 01:49:07;;;;;;;18.40;9.80;;;7.40;99.90;;;;;;5055579;28;20040;-81
2022/04/22 01:51:34;;;;;;;18.08;9.60;;;7.30;99.90;;;;;;5057218;28;20545;-81
2022/04/22 01:53:59;;;;;;;14.35;9.35;;;7.20;99.90;;;;;;5058319;28;20044;-81
2022/04/22 01:56:45;;;;;;;22.45;10.23;;;7.20;99.90;;;;;;5057113;28;20052;-81
2022/04/22 01:59:10;;;;;;;18.63;9.50;;;7.20;99.90;;;;;;5059067;28;20103;-82
2022/04/22 02:01:36;;;;;;;28.58;10.32;;;7.10;99.90;;;;;;5058780;28;20052;-82
2022/04/22 02:04:01;;;;;;;20.55;9.55;;;7.10;99.90;;;;;;5058986;28;20060;-82
2022/04/22 02:06:28;;;;;;;20.77;8.95;;;7.20;99.90;;;;;;5059505;28;20495;-81
2022/04/22 02:08:54;;;;;;;20.85;9.90;;;7.20;99.90;;;;;;5059068;28;20045;-81
2022/04/22 02:11:19;;;;;;;21.75;9.02;;;7.10;99.90;;;;;;5057925;28;20044;-81
2022/04/22 02:13:46;;;;;;;19.92;10.70;;;7.00;99.90;;;;;;5056813;28;20049;-82
2022/04/22 02:16:12;;;;;;;18.17;9.75;;;6.90;99.90;;;;;;5057971;28;20047;-82
2022/04/22 02:18:41;;;;;;;16.73;8.98;;;7.00;99.90;;;;;;5059500;28;20106;-82
2022/04/22 02:21:08;;;;;;;18.85;8.65;;;7.00;99.90;;;;;;5057489;28;20056;-82
2022/04/22 02:23:34;;;;;;;15.63;8.98;;;7.00;99.90;;;;;;5055914;28;20045;-82
2022/04/22 02:26:01;;;;;;;16.60;8.55;;;6.90;99.90;;;;;;5055604;28;20045;-82
2022/04/22 02:28:33;;;;;;;22.02;8.02;;;6.80;99.90;;;;;;5055818;28;20388;-82
2022/04/22 02:31:10;;;;;;;17.63;8.15;;;6.80;99.90;;;;;;5055926;28;20051;-81
2022/04/22 02:33:37;;;;;;;18.38;9.13;;;6.80;99.90;;;;;;5055827;28;20451;-82
2022/04/22 02:36:03;;;;;;;14.55;7.70;;;6.70;99.90;;;;;;5056766;28;20100;-82
2022/04/22 02:38:34;;;;;;;16.52;8.30;;;6.70;99.90;;;;;;5059636;28;20040;-82
2022/04/22 02:46:28;;;;;;;13.25;7.30;;;6.60;99.90;;;;;;5058718;28;20045;-82
2022/04/22 02:49:00;;;;;;;14.57;6.30;;;6.50;99.90;;;;;;5058658;28;20087;-82
2022/04/22 02:51:26;;;;;;;10.82;6.65;;;6.50;99.90;;;;;;5059082;28;20123;-82
2022/04/22 02:53:53;;;;;;;16.30;6.93;;;6.40;99.90;;;;;;5057339;28;20047;-82
2022/04/22 02:56:20;;;;;;;22.13;7.20;;;6.40;99.90;;;;;;5058671;28;20045;-82
2022/04/22 02:58:46;;;;;;;11.57;6.50;;;6.30;99.90;;;;;;5040522;28;20048;-82
2022/04/22 03:01:14;;;;;;;15.57;7.18;;;6.30;99.90;;;;;;5058377;28;20522;-82
2022/04/22 03:03:42;;;;;;;15.02;7.53;;;6.20;99.90;;;;;;5058368;28;20048;-82
2022/04/22 03:06:07;;;;;;;14.65;7.38;;;6.30;99.90;;;;;;5059093;28;20043;-82
2022/04/22 03:08:34;;;;;;;18.55;6.95;;;6.40;99.90;;;;;;5059090;28;20521;-82
2022/04/22 03:10:59;;;;;;;14.73;6.97;;;6.30;99.90;;;;;;5058864;28;20048;-82
2022/04/22 03:13:25;;;;;;;16.05;6.97;;;6.20;99.90;;;;;;5057214;28;20045;-81
2022/04/22 03:15:51;;;;;;;14.57;6.57;;;6.20;99.90;;;;;;5058657;28;20045;-82
2022/04/22 03:18:16;;;;;;;15.23;7.28;;;6.20;99.90;;;;;;5060628;28;20056;-83
2022/04/22 03:20:42;;;;;;;16.17;7.35;;;6.20;99.90;;;;;;5058814;28;20064;-82
2022/04/22 03:23:08;;;;;;;11.63;5.97;;;6.20;99.90;;;;;;5058420;28;20045;-82
2022/04/22 03:25:34;;;;;;;14.43;6.85;;;6.20;99.90;;;;;;5058289;28;20439;-82
2022/04/22 03:28:00;;;;;;;13.93;6.82;;;6.10;99.90;;;;;;5058603;28;20106;-82
2022/04/22 03:30:25;;;;;;;14.20;6.75;;;6.10;99.90;;;;;;5058435;28;20072;-81
2022/04/22 03:32:51;;;;;;;13.25;6.70;;;6.90;99.90;;;;;;5058452;28;20033;-82
2022/04/22 03:35:17;;;;;;;15.95;6.82;;;6.10;99.90;;;;;;5058202;28;20171;-82
2022/04/22 03:37:42;;;;;;;14.93;6.13;;;6.00;99.90;;;;;;5058363;28;20037;-82
2022/04/22 03:40:10;;;;;;;16.63;6.50;;;6.00;99.90;;;;;;5058102;28;20048;-82
2022/04/22 03:42:36;;;;;;;13.10;6.53;;;6.00;99.90;;;;;;5056896;28;20037;-82
2022/04/22 03:45:03;;;;;;;12.85;6.18;;;6.00;99.90;;;;;;5058302;28;20073;-82
2022/04/22 03:47:29;;;;;;;13.70;5.93;;;6.10;99.90;;;;;;5058137;28;20116;-81
2022/04/22 03:49:55;;;;;;;13.95;6.07;;;6.20;99.90;;;;;;5057808;28;20076;-82
2022/04/22 03:52:20;;;;;;;13.00;6.07;;;6.10;99.90;;;;;;5056380;28;20040;-82
2022/04/22 03:54:59;;;;;;;12.77;6.53;;;6.20;99.90;;;;;;5058200;28;20088;-83
2022/04/22 04:00:09;;;;;;;10.45;5.70;;;6.10;99.90;;;;;;5057648;28;20053;-82
2022/04/22 04:02:35;;;;;;;9.10;5.82;;;6.10;99.90;;;;;;5057798;28;20048;-82
2022/04/22 04:05:01;;;;;;;11.88;6.60;;;6.00;99.90;;;;;;5057826;28;20075;-82
2022/04/22 04:07:27;;;;;;;15.13;6.13;;;6.00;99.90;;;;;;5057197;28;20049;-83
2022/04/22 04:18:21;;;;;;;13.45;6.45;;;5.90;99.90;;;;;;5050535;28;20049;-82
2022/04/22 04:23:31;;;;;;;9.68;5.45;;;5.90;99.90;;;;;;5057921;28;20138;-82
2022/04/22 04:25:57;;;;;;;12.02;6.25;;;5.90;99.90;;;;;;5057835;28;20068;-82
2022/04/22 04:28:23;;;;;;;10.35;5.07;;;5.90;99.90;;;;;;5057448;28;20056;-83
2022/04/22 04:30:48;;;;;;;16.20;5.88;;;5.90;99.90;;;;;;5057679;28;20037;-82
2022/04/22 04:33:14;;;;;;;8.68;5.18;;;6.00;99.90;;;;;;5056733;28;20044;-82
2022/04/22 04:35:44;;;;;;;15.05;5.63;;;6.00;99.90;;;;;;5057027;28;20033;-82
2022/04/22 04:38:09;;;;;;;13.18;5.60;;;6.00;99.90;;;;;;5057254;28;20041;-83
2022/04/22 04:40:35;;;;;;;16.40;5.40;;;6.00;99.90;;;;;;5056965;28;20051;-83
2022/04/22 04:43:01;;;;;;;10.73;5.40;;;6.10;99.90;;;;;;5057275;28;20041;-82
2022/04/22 04:45:29;;;;;;;15.10;6.65;;;6.10;99.90;;;;;;5057371;28;20052;-82
2022/04/22 04:47:55;;;;;;;10.13;5.55;;;6.10;99.90;;;;;;5057119;28;20049;-82
2022/04/22 04:50:21;;;;;;;13.48;5.22;;;6.10;99.90;;;;;;5055815;28;20044;-83
2022/04/22 04:52:46;;;;;;;14.60;5.88;;;6.10;99.90;;;;;;5056899;28;20138;-83
2022/04/22 04:55:15;;;;;;;13.45;6.75;;;6.10;99.90;;;;;;5057525;28;20037;-82
2022/04/22 04:57:42;;;;;;;14.55;6.25;;;6.10;99.90;;;;;;5039363;28;20071;-82
2022/04/22 05:00:11;;;;;;;12.90;6.18;;;6.10;99.90;;;;;;5056912;28;20163;-83
2022/04/22 05:02:38;;;;;;;11.70;5.47;;;6.10;99.90;;;;;;5055831;28;20029;-83
2022/04/22 05:05:05;;;;;;;12.55;6.25;;;6.10;99.90;;;;;;5054772;28;20036;-82
2022/04/22 05:07:31;;;;;;;14.77;5.72;;;6.00;99.90;;;;;;5054480;28;20041;-83
2022/04/22 05:09:57;;;;;;;13.90;5.70;;;6.10;99.90;;;;;;5036787;28;20044;-83
2022/04/22 05:12:23;;;;;;;11.85;6.43;;;6.10;99.90;;;;;;5054087;28;20037;-83
2022/04/22 05:14:48;;;;;;;9.30;5.57;;;6.20;99.90;;;;;;5055448;28;20419;-82
2022/04/22 05:17:14;;;;;;;15.32;6.35;;;6.20;99.90;;;;;;5052703;28;20045;-83
2022/04/22 05:19:40;;;;;;;12.93;5.90;;;6.20;99.90;;;;;;5054096;28;20037;-82
2022/04/22 05:22:05;;;;;;;10.27;6.13;;;6.30;99.90;;;;;;5050843;28;20102;-83
2022/04/22 05:24:31;;;;;;;16.73;6.43;;;6.30;99.90;;;;;;5050375;28;20388;-83
2022/04/22 05:26:57;;;;;;;11.73;6.18;;;6.40;99.90;;;;;;5049340;28;20048;-83
2022/04/22 05:34:51;;;;;;;10.57;5.75;;;6.60;99.90;;;;;;5052942;28;20132;-83
2022/04/22 05:37:17;;;;;;;11.40;5.15;;;6.70;99.90;;;;;;5052856;28;20083;-83
2022/04/22 05:39:43;;;;;;;12.45;6.18;;;6.70;99.90;;;;;;5052638;28;20037;-83
2022/04/22 05:42:09;;;;;;;14.50;5.28;;;6.80;99.90;;;;;;5051108;28;20076;-82
2022/04/22 05:44:35;;;;;;;11.88;6.50;;;6.80;99.90;;;;;;5052477;28;20656;-83
2022/04/22 05:47:01;;;;;;;9.48;5.15;;;6.90;99.90;;;;;;5052862;28;20043;-82
2022/04/22 05:49:27;;;;;;;10.93;5.45;;;6.90;99.90;;;;;;5052311;28;20098;-82
2022/04/22 05:51:54;;;;;;;12.70;5.15;;;7.00;99.90;;;;;;5054070;28;20044;-83
2022/04/22 05:54:20;;;;;;;11.95;4.10;;;7.00;99.90;;;;;;5055924;28;20060;-82
2022/04/22 05:56:45;;;;;;;11.20;4.60;;;7.10;99.90;;;;;;5053263;28;20049;-83
2022/04/22 05:59:11;;;;;;;9.18;4.38;;;7.20;99.90;;;;;;5054895;28;20128;-83
2022/04/22 06:01:37;;;;;;;13.85;4.55;;;7.30;99.90;;;;;;5053829;28;20546;-82
2022/04/22 06:04:02;;;;;;;8.73;4.05;;;7.30;99.90;;;;;;5050745;28;20088;-83
2022/04/22 06:06:28;;;;;;;12.57;5.00;;;7.40;99.90;;;;;;5050793;28;20052;-83
2022/04/22 06:11:37;;;;;;;11.23;3.95;;;7.60;99.90;;;;;;5053201;28;20072;-83
2022/04/22 06:14:03;;;;;;;7.85;3.70;;;8.20;99.90;;;;;;5055823;28;20076;-83
2022/04/22 06:16:28;;;;;;;11.00;3.72;;;9.10;99.90;;;;;;5054846;28;20127;-83
2022/04/22 06:18:54;;;;;;;16.75;3.38;;;9.80;99.90;;;;;;5055732;28;20048;-83
2022/04/22 06:21:19;;;;;;;12.40;3.47;;;10.30;99.90;;;;;;5054767;28;20384;-83
2022/04/22 06:23:45;;;;;;;4.60;2.55;;;10.60;99.90;;;;;;5055284;28;20055;-83
2022/04/22 06:26:11;;;;;;;6.85;2.90;;;10.80;99.90;;;;;;5054266;28;20041;-83
2022/04/22 06:28:36;;;;;;;9.27;2.80;;;11.60;99.90;;;;;;5054880;28;20056;-83
2022/04/22 06:31:02;;;;;;;6.35;3.10;;;11.60;99.90;;;;;;5054691;28;20045;-83
2022/04/22 06:33:28;;;;;;;8.32;2.70;;;11.60;99.90;;;;;;5054142;28;20045;-83
2022/04/22 06:35:53;;;;;;;4.68;2.40;;;11.90;99.90;;;;;;5054035;28;20442;-83
2022/04/22 06:38:21;;;;;;;5.28;2.28;;;11.80;99.90;;;;;;5059555;28;20037;-83
2022/04/22 06:46:18;;;;;;;8.02;2.47;;;12.60;99.90;;;;;;5054845;28;20049;-83
2022/04/22 06:48:44;;;;;;;6.00;2.38;;;12.60;96.60;;;;;;5054881;28;20068;-83
2022/04/22 06:51:10;;;;;;;7.20;2.45;;;12.60;97.70;;;;;;5044227;28;20037;-83
2022/04/22 06:53:37;;;;;;;5.38;2.05;;;12.90;92.80;;;;;;5041026;28;20064;-83
2022/04/22 06:56:06;;;;;;;4.70;1.98;;;13.10;91.70;;;;;;5034330;28;20050;-82
2022/04/22 06:58:37;;;;;;;5.18;2.00;;;13.00;92.00;;;;;;5031801;28;85048;-83
2022/04/22 07:01:03;;;;;;;5.40;2.38;;;12.60;93.00;;;;;;5035705;28;20454;-83
2022/04/22 07:03:28;;;;;;;4.90;2.17;;;12.80;90.80;;;;;;5038011;28;20037;-83
2022/04/22 07:05:54;;;;;;;6.22;2.05;;;13.60;90.10;;;;;;5055916;28;20498;-83
2022/04/22 07:08:20;;;;;;;7.00;2.70;;;13.50;77.60;;;;;;5057997;28;20047;-83
2022/04/22 07:10:50;;;;;;;5.72;1.95;;;13.80;80.30;;;;;;5052775;28;20043;-83
2022/04/22 07:13:17;;;;;;;6.50;2.33;;;13.80;80.80;;;;;;5048947;28;20535;-82
2022/04/22 07:15:48;;;;;;;6.38;2.47;;;14.10;77.90;;;;;;5044687;28;20092;-82
2022/04/22 07:18:15;;;;;;;3.80;1.70;;;14.20;77.90;;;;;;5046721;28;20050;-82
2022/04/22 07:20:41;;;;;;;11.32;2.60;;;14.30;69.40;;;;;;5045896;28;20499;-82
2022/04/22 07:23:10;;;;;;;5.70;1.98;;;14.20;69.40;;;;;;5047322;28;20373;-82
2022/04/22 07:25:36;;;;;;;4.68;2.35;;;13.60;74.10;;;;;;5041446;28;20395;-82
2022/04/22 07:28:04;;;;;;;9.23;2.20;;;14.00;75.50;;;;;;5033804;28;20041;-82
2022/04/22 07:30:30;;;;;;;5.03;2.08;;;14.40;66.70;;;;;;5035038;28;20488;-82
2022/04/22 07:32:56;;;;;;;8.70;2.40;;;14.50;59.80;;;;;;5016980;28;20484;-82
2022/04/22 07:35:22;;;;;;;4.32;2.13;;;14.60;64.00;;;;;;5034347;28;20095;-82
2022/04/22 07:37:49;;;;;;;4.75;2.40;;;14.60;65.30;;;;;;5033852;28;20132;-82
2022/04/22 07:40:16;;;;;;;4.10;1.98;;;14.80;61.60;;;;;;5033326;28;20084;-82
2022/04/22 07:48:17;;;;;;;4.60;2.42;;;14.40;66.10;;;;;;5034609;28;20128;-81
2022/04/22 07:50:45;;;;;;;7.25;2.65;;;14.60;62.30;;;;;;5034780;28;20412;-81
2022/04/22 07:53:11;;;;;;;7.88;2.15;;;14.80;58.10;;;;;;5033785;28;20045;-82
2022/04/22 07:55:37;;;;;;;7.22;2.20;;;15.30;55.50;;;;;;5031514;28;20555;-81
2022/04/22 07:58:02;;;;;;;5.97;2.63;;;15.10;53.00;;;;;;5031490;28;20514;-82
2022/04/22 08:00:28;;;;;;;7.30;2.13;;;14.70;58.60;;;;;;5048527;28;20041;-81
2022/04/22 08:02:53;;;;;;;6.53;2.10;;;14.80;56.50;;;;;;5052417;28;20045;-82
2022/04/22 08:05:19;;;;;;;4.88;2.35;;;14.80;53.10;;;;;;5052728;28;20037;-82
2022/04/22 08:07:44;;;;;;;6.97;3.17;;;15.50;58.00;;;;;;5053323;28;20041;-82
2022/04/22 08:10:10;;;;;;;4.38;1.85;;;15.80;46.10;;;;;;5051720;28;20396;-82
2022/04/22 08:12:35;;;;;;;5.63;2.38;;;15.80;49.30;;;;;;5053079;28;20126;-82
2022/04/22 08:15:03;;;;;;;5.72;2.20;;;16.30;38.80;;;;;;5053407;28;20048;-81
2022/04/22 08:17:36;;;;;;;6.55;2.80;;;16.00;42.30;;;;;;5053944;28;20044;-81
2022/04/22 08:20:03;;;;;;;5.88;2.60;;;15.70;40.00;;;;;;5053696;28;20033;-82
2022/04/22 08:22:29;;;;;;;8.85;3.13;;;15.80;44.20;;;;;;5052327;28;20052;-82
2022/04/22 08:24:55;;;;;;;7.80;2.65;;;15.20;44.40;;;;;;5054296;28;20411;-81
2022/04/22 08:27:22;;;;;;;6.65;2.67;;;15.60;50.90;;;;;;5037137;28;20086;-81
2022/04/22 08:29:47;;;;;;;6.85;2.22;;;16.00;44.60;;;;;;5052718;28;20040;-81
2022/04/22 08:32:13;;;;;;;5.22;2.53;;;16.50;40.70;;;;;;5049929;28;20041;-82
2022/04/22 08:34:38;;;;;;;7.55;3.05;;;16.60;31.60;;;;;;5048714;28;20136;-81
2022/04/22 08:37:04;;;;;;;5.03;1.85;;;16.30;34.90;;;;;;5058199;22;20112;-82
2022/04/22 08:39:30;;;;;;;7.35;2.63;;;16.20;37.30;;;;;;5030625;28;20403;-81
2022/04/22 08:42:00;;;;;;;8.68;2.75;;;16.80;34.30;;;;;;5031642;28;20049;-81
2022/04/22 08:44:26;;;;;;;9.15;2.20;;;16.90;37.90;;;;;;5016771;28;20045;-81
2022/04/22 08:52:24;;;;;;;4.40;2.33;;;16.30;28.10;;;;;;5011661;28;20108;-81
2022/04/22 08:54:52;;;;;;;5.15;2.10;;;16.60;34.60;;;;;;5018566;28;20051;-81
2022/04/22 08:57:19;;;;;;;4.10;2.13;;;16.80;26.60;;;;;;5030994;28;20064;-81
2022/04/22 08:59:45;;;;;;;6.35;2.40;;;17.00;27.00;;;;;;5030997;28;20033;-81
2022/04/22 09:02:14;;;;;;;6.75;2.45;;;17.00;28.40;;;;;;5031648;28;20427;-81
2022/04/22 09:04:40;;;;;;;6.63;2.30;;;16.80;28.10;;;;;;5030881;28;20080;-81
2022/04/22 09:07:11;;;;;;;4.30;2.10;;;16.90;31.80;;;;;;5029709;28;20610;-81
2022/04/22 09:09:39;;;;;;;5.50;2.42;;;16.80;26.40;;;;;;5028089;28;20057;-81
2022/04/22 09:12:14;;;;;;;9.50;2.40;;;16.70;29.80;;;;;;5010955;28;20056;-81
2022/04/22 09:14:51;;;;;;;6.43;2.85;;;17.00;29.20;;;;;;5011562;28;20038;-82
2022/04/22 09:17:23;;;;;;;12.20;2.85;;;16.80;27.10;;;;;;5011608;28;20072;-82
2022/04/22 09:19:49;;;;;;;5.32;2.17;;;16.50;27.30;;;;;;5010584;28;20060;-81
2022/04/22 09:22:19;;;;;;;6.30;2.33;;;16.40;31.60;;;;;;5011794;28;20045;-81
2022/04/22 09:24:50;;;;;;;4.10;1.85;;;16.60;30.30;;;;;;5011066;28;20046;-81
2022/04/22 09:27:16;;;;;;;8.23;2.25;;;17.10;26.80;;;;;;5026375;28;20104;-81
2022/04/22 09:29:55;;;;;;;7.47;2.47;;;17.20;24.30;;;;;;5013260;28;20125;-81
2022/04/22 09:32:28;;;;;;;5.15;2.13;;;17.70;23.40;;;;;;5012686;28;20493;-81
2022/04/22 09:35:06;;;;;;;6.93;2.17;;;17.20;24.40;;;;;;5011822;28;20081;-81
2022/04/22 09:42:56;;;;;;;6.88;2.13;;;16.70;26.20;;;;;;5016445;28;20042;-81
2022/04/22 09:45:34;;;;;;;5.05;2.35;;;16.90;24.10;;;;;;5017643;28;20527;-80
2022/04/22 09:48:00;;;;;;;9.35;3.20;;;16.60;25.30;;;;;;5035037;28;20120;-81
2022/04/22 09:50:40;;;;;;;6.88;2.60;;;16.40;25.50;;;;;;5035218;28;20073;-81
2022/04/22 09:53:06;;;;;;;5.55;2.60;;;16.40;26.90;;;;;;5035561;28;20049;-81
2022/04/22 09:55:35;;;;;;;7.43;2.47;;;16.30;29.40;;;;;;5033497;28;20085;-81
2022/04/22 09:58:01;;;;;;;6.75;2.85;;;16.30;24.70;;;;;;5033248;28;20076;-81
2022/04/22 10:00:31;;;;;;;6.10;2.50;;;16.40;26.20;;;;;;5033099;28;20054;-81
2022/04/22 10:02:57;;;;;;;8.95;2.40;;;16.50;24.30;;;;;;5032921;28;20491;-81
2022/04/22 10:05:26;;;;;;;9.20;2.92;;;16.70;26.80;;;;;;5033077;28;20072;-81
2022/04/22 10:07:59;;;;;;;6.85;2.65;;;16.70;26.00;;;;;;5033081;28;20045;-81
2022/04/22 10:10:35;;;;;;;8.23;3.17;;;16.70;26.60;;;;;;5033306;28;20057;-81
2022/04/22 10:13:04;;;;;;;5.18;2.75;;;16.90;27.20;;;;;;5031690;28;20183;-81
2022/04/22 10:15:32;;;;;;;9.63;2.85;;;16.80;26.70;;;;;;5032947;28;20082;-81
2022/04/22 10:17:59;;;;;;;5.65;2.28;;;16.80;28.20;;;;;;5032792;28;20155;-81
2022/04/22 10:20:26;;;;;;;7.78;3.17;;;16.90;22.70;;;;;;5031628;28;20056;-81
2022/04/22 10:22:52;;;;;;;5.65;2.90;;;16.60;22.10;;;;;;5032810;28;20119;-81
2022/04/22 10:25:19;;;;;;;6.05;2.75;;;16.60;25.60;;;;;;5032430;28;20563;-80
2022/04/22 10:27:46;;;;;;;6.47;2.88;;;16.60;25.50;;;;;;5032880;28;20407;-80
2022/04/22 10:30:14;;;;;;;7.38;2.63;;;16.70;24.80;;;;;;5032648;28;20072;-80
2022/04/22 10:32:43;;;;;;;4.75;1.98;;;17.00;27.00;;;;;;5032635;28;20125;-81
2022/04/22 10:35:09;;;;;;;9.20;3.58;;;17.30;21.50;;;;;;5032659;28;20041;-81
2022/04/22 10:37:38;;;;;;;6.15;2.80;;;17.50;23.90;;;;;;5032124;28;20053;-81
2022/04/22 10:40:06;;;;;;;10.50;3.40;;;17.20;21.30;;;;;;5032450;28;20048;-80
2022/04/22 10:42:37;;;;;;;8.35;2.90;;;17.10;22.10;;;;;;5032388;28;20053;-81
2022/04/22 10:47:53;;;;;;;4.65;2.72;;;17.40;28.20;;;;;;5032241;28;20073;-81
2022/04/22 10:50:34;;;;;;;9.82;4.25;;;17.70;23.00;;;;;;5031095;28;20057;-81
2022/04/22 10:53:07;;;;;;;9.82;3.03;;;17.70;19.10;;;;;;5033025;28;20048;-81
2022/04/22 10:55:40;;;;;;;7.25;3.30;;;17.80;21.80;;;;;;5031367;28;20125;-81
2022/04/22 10:58:21;;;;;;;6.47;2.83;;;17.60;22.60;;;;;;5035282;28;20121;-81
2022/04/22 11:00:51;;;;;;;5.97;2.97;;;17.90;21.20;;;;;;5036008;28;20083;-81
2022/04/22 11:03:22;;;;;;;7.60;2.55;;;18.30;18.50;;;;;;5036168;28;20080;-81
2022/04/22 11:05:49;;;;;;;15.48;2.70;;;18.20;14.50;;;;;;5035733;28;20492;-81
2022/04/22 11:08:32;;;;;;;8.60;2.72;;;18.20;15.90;;;;;;5035843;28;20400;-81
2022/04/22 11:11:02;;;;;;;9.35;3.20;;;18.10;16.70;;;;;;5035501;28;20377;-80
2022/04/22 11:13:29;;;;;;;5.22;2.80;;;18.30;17.00;;;;;;5035837;28;20041;-81
2022/04/22 11:16:06;;;;;;;6.32;3.45;;;18.30;14.60;;;;;;5035684;28;20048;-80
2022/04/22 11:18:33;;;;;;;9.48;3.13;;;18.00;16.00;;;;;;5035619;28;20046;-81
2022/04/22 11:21:17;;;;;;;6.75;2.95;;;18.20;16.40;;;;;;5035505;28;20038;-81
2022/04/22 11:23:46;;;;;;;7.47;3.10;;;18.40;17.40;;;;;;5035432;28;20053;-81
2022/04/22 11:26:15;;;;;;;6.07;3.50;;;18.40;16.90;;;;;;5035138;28;20056;-81
2022/04/22 11:28:47;;;;;;;4.78;2.47;;;18.70;14.20;;;;;;5035502;28;20495;-81
2022/04/22 11:31:14;;;;;;;6.50;4.00;;;19.10;14.50;;;;;;5035412;28;20046;-81
2022/04/22 11:33:51;;;;;;;7.15;2.83;;;19.30;11.70;;;;;;5035377;28;20041;-81
2022/04/22 11:36:16;;;;;;;5.18;3.15;;;19.70;11.30;;;;;;5034987;28;20057;-80
2022/04/22 11:38:49;;;;;;;6.00;3.15;;;19.50;10.10;;;;;;5035107;28;20075;-81
2022/04/22 11:41:16;;;;;;;9.43;3.20;;;19.40;11.20;;;;;;5035371;28;20498;-81
2022/04/22 11:43:43;;;;;;;5.95;3.08;;;19.90;12.50;;;;;;5035106;28;20042;-81
2022/04/22 11:46:11;;;;;;;6.55;2.95;;;19.80;10.50;;;;;;5035069;28;20092;-81
2022/04/22 11:48:44;;;;;;;9.95;3.17;;;20.30;9.50;;;;;;5034908;28;20559;-81
2022/04/22 11:51:10;;;;;;;6.60;3.03;;;20.40;9.30;;;;;;5034864;28;20571;-81
2022/04/22 11:53:36;;;;;;;6.70;3.70;;;20.70;7.60;;;;;;5034951;28;20124;-81
2022/04/22 11:56:02;;;;;;;9.40;3.70;;;20.60;7.50;;;;;;5034648;28;20076;-81
2022/04/22 11:58:28;;;;;;;7.05;3.30;;;20.30;7.00;;;;;;5034761;28;20084;-81
2022/04/22 12:06:23;;;;;;;10.52;3.47;;;20.60;6.90;;;;;;5034680;28;20175;-81
2022/04/22 12:08:54;;;;;;;7.75;3.78;;;20.30;8.50;;;;;;5033534;28;20116;-81
2022/04/22 12:11:20;;;;;;;9.65;3.75;;;20.50;9.00;;;;;;5034427;28;20124;-81
2022/04/22 12:13:49;;;;;;;7.40;3.88;;;20.60;8.70;;;;;;5034733;28;20468;-81
2022/04/22 12:16:26;;;;;;;8.55;3.45;;;20.50;6.20;;;;;;5034399;28;20586;-81
2022/04/22 12:18:54;;;;;;;436.70;34.25;;;20.50;5.80;;;;;;5034541;28;20120;-81
2022/04/22 12:21:21;;;;;;;12.30;4.60;;;20.80;9.70;;;;;;5034208;28;20038;-81
2022/04/22 12:23:49;;;;;;;10.95;3.70;;;21.20;4.70;;;;;;5034462;28;20053;-81
2022/04/22 12:26:23;;;;;;;5.18;3.13;;;20.70;3.50;;;;;;5032929;28;20088;-81
2022/04/22 12:29:01;;;;;;;7.00;3.67;;;20.70;6.40;;;;;;5034304;28;20084;-82
2022/04/22 12:31:31;;;;;;;8.30;3.83;;;20.90;7.30;;;;;;5034086;28;20050;-81
2022/04/22 12:34:08;;;;;;;5.90;3.47;;;21.50;4.20;;;;;;5034183;28;20046;-81
2022/04/22 12:36:36;;;;;;;12.63;4.00;;;21.70;5.20;;;;;;5032496;28;20060;-81
2022/04/22 12:39:04;;;;;;;7.68;3.40;;;21.60;6.00;;;;;;5034244;28;20130;-81
2022/04/22 12:41:30;;;;;;;12.18;4.45;;;21.20;5.80;;;;;;5032810;28;20057;-81
2022/04/22 12:43:55;;;;;;;14.15;4.10;;;21.60;7.30;;;;;;5033952;28;20091;-81
2022/04/22 12:52:29;;;;;;;7.43;3.85;;;21.10;5.80;;;;;;5033860;28;20045;-81
2022/04/22 12:55:08;;;;;;;9.85;4.13;;;21.30;3.20;;;;;;5033798;28;20049;-81
2022/04/22 12:57:36;;;;;;;18.33;4.55;;;21.40;2.90;;;;;;5033881;28;20046;-81
2022/04/22 13:00:13;;;;;;;8.85;3.67;;;21.20;5.20;;;;;;5033750;28;20128;-81
2022/04/22 13:02:39;;;;;;;6.55;3.75;;;21.50;6.20;;;;;;5034262;28;20168;-81
2022/04/22 13:05:06;;;;;;;10.75;4.68;;;21.50;4.40;;;;;;5033794;28;20504;-81
2022/04/22 13:07:46;;;;;;;7.57;4.40;;;21.60;4.40;;;;;;5036319;28;20412;-81
2022/04/22 13:10:13;;;;;;;7.25;3.90;;;21.70;3.50;;;;;;5034315;28;20068;-81
2022/04/22 13:12:41;;;;;;;9.18;4.50;;;21.80;4.20;;;;;;5034520;28;20033;-81
2022/04/22 13:15:13;;;;;;;10.90;4.82;;;22.20;2.60;;;;;;5033720;28;20487;-80
2022/04/22 13:17:43;;;;;;;7.97;4.25;;;21.70;1.40;;;;;;5033948;28;20049;-81
2022/04/22 13:20:10;;;;;;;10.23;3.75;;;20.90;4.20;;;;;;5031969;28;20045;-81
2022/04/22 13:22:36;;;;;;;12.55;4.97;;;20.50;5.20;;;;;;5033602;28;20041;-81
2022/04/22 13:25:03;;;;;;;9.18;3.97;;;21.50;6.90;;;;;;5032031;28;20045;-81
2022/04/22 13:27:29;;;;;;;9.63;4.57;;;22.70;3.60;;;;;;5033351;28;20041;-81
2022/04/22 13:29:54;;;;;;;11.18;4.20;;;22.70;2.40;;;;;;5033165;28;20530;-82
2022/04/22 13:32:20;;;;;;;9.00;4.82;;;22.60;2.40;;;;;;5033184;28;20072;-82
2022/04/22 13:34:46;;;;;;;10.52;4.82;;;21.80;4.00;;;;;;5033128;28;20084;-82
2022/04/22 13:37:11;;;;;;;9.07;5.13;;;22.00;4.00;;;;;;5032481;28;20137;-82
2022/04/22 13:39:37;;;;;;;6.55;3.97;;;22.20;4.10;;;;;;5034079;28;20076;-81
2022/04/22 13:42:03;;;;;;;9.98;4.53;;;21.40;3.70;;;;;;5032904;28;20091;-81
2022/04/22 13:52:42;;;;;;;11.88;4.75;;;20.50;7.90;;;;;;5033074;28;20041;-81
2022/04/22 13:55:08;;;;;;;9.63;4.38;;;20.40;8.60;;;;;;5032874;28;20072;-81
2022/04/22 13:57:34;;;;;;;10.02;4.93;;;20.30;8.90;;;;;;5032762;28;20037;-81
2022/04/22 14:00:00;;;;;;;9.38;4.30;;;19.50;9.90;;;;;;5033065;28;20072;-81
2022/04/22 14:02:25;;;;;;;10.10;5.38;;;19.00;11.90;;;;;;5032887;28;20046;-81
2022/04/22 14:04:51;;;;;;;8.73;4.68;;;18.80;13.60;;;;;;5032821;28;20083;-81
2022/04/22 14:07:16;;;;;;;8.77;4.32;;;18.90;14.80;;;;;;5032626;28;20037;-81
2022/04/22 14:09:42;;;;;;;9.18;4.78;;;18.80;13.40;;;;;;5031650;28;20051;-81